Friday, October 24, 2014, 3:42 AM EDT
Back to Local

KGKJ, Port Meadville Airport

Location: Meadville, PA, United States Lat: 41.633
Local Time: 3:42 AM EDT ( 7:42 GMT) Lon: -80.217
Time Zone: US/Eastern Elev: 1400 ft

Show me the last for .
Show Coded

Time T Td Feel RH Dir Speed Gust Alt SLP Vis Weather Sky Remarks
2014-10-24 03:26 42 40 37 91 260° 8 - 30.07 - 1 BR SCT002 BKN020 None
2014-10-24 03:01 41 39 36 92 260° 7 - 30.07 - 2 BR FEW002 None
2014-10-24 02:53 41 39 38 92 250° 5 - 30.07 30.07 5 BR CLR None
2014-10-24 01:53 42 40 39 91 280° 5 - 30.06 30.07 9 CLR 6-hr Min Temp (2am): 42.1°F
6-hr Max Temp (2am): 48.0°F
2014-10-24 00:53 43 41 41 92 350° 3 - 30.06 30.07 7 CLR 24-hr Min Temp (1am): 42.1°F
24-hr Max Temp (1am): 57.0°F
2014-10-23 23:53 44 41 41 88 290° 6 - 30.06 30.07 10 CLR None
2014-10-23 22:53 44 42 42 92 270° 5 - 30.07 30.08 10 CLR None
2014-10-23 21:53 45 42 43 89 280° 5 - 30.08 30.09 10 CLR None
2014-10-23 20:53 46 42 45 85 270° 3 - 30.09 30.10 10 CLR None
2014-10-23 20:37 46 42 45 85 260° 3 - 30.08 - 10 FEW009 None
2014-10-23 19:53 47 42 46 83 300° 3 - 30.09 30.10 10 CLR 6-hr Min Temp (8pm): 46.9°F
6-hr Max Temp (8pm): 57.0°F
2014-10-23 18:53 49 41 48 73 300° 3 - 30.09 30.10 10 CLR None
2014-10-23 17:53 52 41 - 66 300° 10 - 30.08 30.09 10 CLR None
2014-10-23 16:53 54 40 - 58 350° 8 - 30.08 30.09 10 CLR None
2014-10-23 15:53 56 41 - 57 310° 9 16 30.09 30.10 10 CLR None
2014-10-23 14:53 56 40 - 54 360° 9 17 30.10 30.10 10 CLR None
2014-10-23 13:53 56 40 - 54 350° 12 17 30.11 30.12 10 FEW034 6-hr Min Temp (2pm): 44.1°F
6-hr Max Temp (2pm): 55.9°F
2014-10-23 12:53 55 40 - 56 10° 13 18 30.13 30.14 10 FEW031 None
2014-10-23 11:53 55 42 - 61 10° 9 18 30.13 30.14 10 FEW029 None
2014-10-23 10:53 53 42 - 66 10° 13 20 30.14 30.15 10 FEW025 None
2014-10-23 09:53 51 42 - 71 340° 7 - 30.14 30.16 10 CLR None
2014-10-23 08:53 46 42 44 85 Variable 5 - 30.14 30.16 10 CLR None
2014-10-23 07:41 45 40 44 82 330° 3 - 30.14 - 10 SCT016 None
2014-10-23 06:53 46 41 41 82 10° 10 - 30.14 30.16 10 OVC015 None
2014-10-23 06:22 46 42 42 85 350° 7 - 30.14 - 10 OVC014 None
2014-10-23 05:53 46 41 42 82 350° 7 - 30.14 30.16 10 OVC015 None
2014-10-23 05:11 45 41 41 85 350° 8 - 30.14 - 10 BKN014 None
2014-10-23 04:53 46 42 42 85 350° 7 - 30.14 30.15 10 OVC016 None
2014-10-23 03:53 45 42 41 89 360° 7 - 30.14 30.16 10 OVC017 None

Support USWX by starting your Amazon purchase here.